Terminal Aerodrome Forecast
Issued by NWS

Home | Current Version | Previous Version | Text Only | Print | Product List | Glossary On
Versions: 1 2 3 4 5 6 7 8 9 10 11 12 13
000
FTUS45 KRIW 310500
TAFJAC
TAF
KJAC 310539Z 3106/0106 01009KT P6SM SCT090 SCT200
     FM311600 33007KT P6SM SKC
     FM010400 36007KT P6SM FEW020
      AMD LTD TO CLD VIS AND WIND=

USA.gov is the U.S. government's official web portal to all federal, state and local government web resources and services.